sensor_id;sensor_type;location;lat;lon;timestamp;P1;durP1;ratioP1;P2;durP2;ratioP2
21941;SDS011;11135;54.192;15.670;2023-07-13T00:00:13;9.43;;;5.75;;
21941;SDS011;11135;54.192;15.670;2023-07-13T00:03:38;10.23;;;5.30;;
21941;SDS011;11135;54.192;15.670;2023-07-13T00:06:47;7.72;;;5.65;;
21941;SDS011;11135;54.192;15.670;2023-07-13T00:09:55;10.50;;;5.47;;
21941;SDS011;11135;54.192;15.670;2023-07-13T00:13:01;10.85;;;6.03;;
21941;SDS011;11135;54.192;15.670;2023-07-13T00:16:06;9.75;;;6.13;;
21941;SDS011;11135;54.192;15.670;2023-07-13T00:19:14;10.25;;;6.03;;
21941;SDS011;11135;54.192;15.670;2023-07-13T00:22:20;10.07;;;5.53;;
21941;SDS011;11135;54.192;15.670;2023-07-13T00:25:29;9.90;;;5.85;;
21941;SDS011;11135;54.192;15.670;2023-07-13T00:28:34;11.65;;;6.70;;
21941;SDS011;11135;54.192;15.670;2023-07-13T00:31:40;7.00;;;5.90;;
21941;SDS011;11135;54.192;15.670;2023-07-13T00:34:46;10.40;;;5.82;;
21941;SDS011;11135;54.192;15.670;2023-07-13T00:37:52;8.80;;;6.10;;
21941;SDS011;11135;54.192;15.670;2023-07-13T00:41:01;10.05;;;5.53;;
21941;SDS011;11135;54.192;15.670;2023-07-13T00:44:08;11.63;;;5.78;;
21941;SDS011;11135;54.192;15.670;2023-07-13T00:47:14;8.65;;;5.57;;
21941;SDS011;11135;54.192;15.670;2023-07-13T00:50:20;8.20;;;6.10;;
21941;SDS011;11135;54.192;15.670;2023-07-13T00:53:26;8.95;;;5.88;;
21941;SDS011;11135;54.192;15.670;2023-07-13T00:56:35;8.32;;;5.68;;
21941;SDS011;11135;54.192;15.670;2023-07-13T00:59:42;9.05;;;5.82;;
21941;SDS011;11135;54.192;15.670;2023-07-13T01:02:48;9.57;;;5.93;;
21941;SDS011;11135;54.192;15.670;2023-07-13T01:05:54;9.70;;;5.63;;
21941;SDS011;11135;54.192;15.670;2023-07-13T01:09:00;7.82;;;5.47;;
21941;SDS011;11135;54.192;15.670;2023-07-13T01:12:10;7.82;;;5.82;;
21941;SDS011;11135;54.192;15.670;2023-07-13T01:18:36;9.90;;;5.70;;
21941;SDS011;11135;54.192;15.670;2023-07-13T01:21:44;10.43;;;5.40;;
21941;SDS011;11135;54.192;15.670;2023-07-13T01:24:54;7.45;;;5.47;;
21941;SDS011;11135;54.192;15.670;2023-07-13T01:27:59;9.73;;;6.10;;
21941;SDS011;11135;54.192;15.670;2023-07-13T01:31:05;7.72;;;5.32;;
21941;SDS011;11135;54.192;15.670;2023-07-13T01:34:10;9.27;;;6.38;;
21941;SDS011;11135;54.192;15.670;2023-07-13T01:37:18;9.50;;;5.32;;
21941;SDS011;11135;54.192;15.670;2023-07-13T01:40:25;7.97;;;5.40;;
21941;SDS011;11135;54.192;15.670;2023-07-13T01:43:30;10.70;;;5.00;;
21941;SDS011;11135;54.192;15.670;2023-07-13T01:46:36;8.93;;;5.85;;
21941;SDS011;11135;54.192;15.670;2023-07-13T01:49:41;9.40;;;5.70;;
21941;SDS011;11135;54.192;15.670;2023-07-13T01:52:50;11.65;;;5.55;;
21941;SDS011;11135;54.192;15.670;2023-07-13T01:55:55;7.35;;;5.20;;
21941;SDS011;11135;54.192;15.670;2023-07-13T01:59:01;8.43;;;5.38;;
21941;SDS011;11135;54.192;15.670;2023-07-13T02:02:06;9.23;;;6.18;;
21941;SDS011;11135;54.192;15.670;2023-07-13T02:05:12;8.77;;;5.60;;
21941;SDS011;11135;54.192;15.670;2023-07-13T02:08:20;7.90;;;5.75;;
21941;SDS011;11135;54.192;15.670;2023-07-13T02:11:25;9.25;;;5.55;;
21941;SDS011;11135;54.192;15.670;2023-07-13T02:14:34;9.52;;;5.55;;
21941;SDS011;11135;54.192;15.670;2023-07-13T02:17:42;7.78;;;5.40;;
21941;SDS011;11135;54.192;15.670;2023-07-13T02:20:48;8.13;;;5.40;;
21941;SDS011;11135;54.192;15.670;2023-07-13T02:23:56;8.02;;;5.07;;
21941;SDS011;11135;54.192;15.670;2023-07-13T02:27:02;8.68;;;5.30;;
21941;SDS011;11135;54.192;15.670;2023-07-13T02:30:08;8.43;;;4.93;;
21941;SDS011;11135;54.192;15.670;2023-07-13T02:33:15;7.00;;;4.78;;
21941;SDS011;11135;54.192;15.670;2023-07-13T02:36:21;7.05;;;4.78;;
21941;SDS011;11135;54.192;15.670;2023-07-13T02:39:28;6.47;;;4.65;;
21941;SDS011;11135;54.192;15.670;2023-07-13T02:42:35;9.30;;;4.90;;
21941;SDS011;11135;54.192;15.670;2023-07-13T02:45:43;7.07;;;4.53;;
21941;SDS011;11135;54.192;15.670;2023-07-13T02:48:50;7.57;;;4.88;;
21941;SDS011;11135;54.192;15.670;2023-07-13T02:51:55;8.43;;;5.05;;
21941;SDS011;11135;54.192;15.670;2023-07-13T02:55:03;6.53;;;4.20;;
21941;SDS011;11135;54.192;15.670;2023-07-13T02:58:08;6.97;;;4.22;;
21941;SDS011;11135;54.192;15.670;2023-07-13T03:01:15;6.65;;;4.20;;
21941;SDS011;11135;54.192;15.670;2023-07-13T03:04:21;6.18;;;4.20;;
21941;SDS011;11135;54.192;15.670;2023-07-13T03:07:27;6.65;;;4.97;;
21941;SDS011;11135;54.192;15.670;2023-07-13T03:10:34;6.40;;;4.65;;
21941;SDS011;11135;54.192;15.670;2023-07-13T03:13:41;6.47;;;4.35;;
21941;SDS011;11135;54.192;15.670;2023-07-13T03:16:49;6.70;;;4.28;;
21941;SDS011;11135;54.192;15.670;2023-07-13T03:19:55;6.32;;;4.10;;
21941;SDS011;11135;54.192;15.670;2023-07-13T03:23:00;6.47;;;4.45;;
21941;SDS011;11135;54.192;15.670;2023-07-13T03:26:09;7.53;;;4.53;;
21941;SDS011;11135;54.192;15.670;2023-07-13T03:29:15;8.02;;;4.65;;
21941;SDS011;11135;54.192;15.670;2023-07-13T03:32:21;7.95;;;4.65;;
21941;SDS011;11135;54.192;15.670;2023-07-13T03:35:26;8.65;;;4.75;;
21941;SDS011;11135;54.192;15.670;2023-07-13T03:38:31;6.97;;;4.68;;
21941;SDS011;11135;54.192;15.670;2023-07-13T03:41:40;6.70;;;4.82;;
21941;SDS011;11135;54.192;15.670;2023-07-13T03:44:46;8.57;;;4.65;;
21941;SDS011;11135;54.192;15.670;2023-07-13T03:47:54;8.23;;;5.25;;
21941;SDS011;11135;54.192;15.670;2023-07-13T03:51:00;8.05;;;5.57;;
21941;SDS011;11135;54.192;15.670;2023-07-13T03:54:05;9.43;;;5.35;;
21941;SDS011;11135;54.192;15.670;2023-07-13T03:57:13;7.97;;;5.03;;
21941;SDS011;11135;54.192;15.670;2023-07-13T04:00:18;6.55;;;5.07;;
21941;SDS011;11135;54.192;15.670;2023-07-13T04:03:24;11.27;;;5.47;;
21941;SDS011;11135;54.192;15.670;2023-07-13T04:06:30;6.40;;;5.15;;
21941;SDS011;11135;54.192;15.670;2023-07-13T04:09:36;9.77;;;5.22;;
21941;SDS011;11135;54.192;15.670;2023-07-13T04:12:43;9.23;;;5.40;;
21941;SDS011;11135;54.192;15.670;2023-07-13T04:15:49;10.20;;;5.13;;
21941;SDS011;11135;54.192;15.670;2023-07-13T04:18:54;7.05;;;4.70;;
21941;SDS011;11135;54.192;15.670;2023-07-13T04:22:03;7.95;;;4.97;;
21941;SDS011;11135;54.192;15.670;2023-07-13T04:25:08;7.95;;;4.80;;
21941;SDS011;11135;54.192;15.670;2023-07-13T04:28:16;10.07;;;5.38;;
21941;SDS011;11135;54.192;15.670;2023-07-13T04:31:22;10.90;;;5.38;;
21941;SDS011;11135;54.192;15.670;2023-07-13T04:34:28;7.72;;;4.93;;
21941;SDS011;11135;54.192;15.670;2023-07-13T04:37:33;11.05;;;4.57;;
21941;SDS011;11135;54.192;15.670;2023-07-13T04:40:38;9.10;;;5.03;;
21941;SDS011;11135;54.192;15.670;2023-07-13T04:43:46;11.45;;;5.20;;
21941;SDS011;11135;54.192;15.670;2023-07-13T04:46:54;8.65;;;4.65;;
21941;SDS011;11135;54.192;15.670;2023-07-13T04:49:59;8.40;;;4.13;;
21941;SDS011;11135;54.192;15.670;2023-07-13T04:53:05;10.02;;;5.20;;
21941;SDS011;11135;54.192;15.670;2023-07-13T04:56:15;7.25;;;4.50;;
21941;SDS011;11135;54.192;15.670;2023-07-13T04:59:24;8.40;;;4.82;;
21941;SDS011;11135;54.192;15.670;2023-07-13T05:02:29;6.88;;;4.15;;
21941;SDS011;11135;54.192;15.670;2023-07-13T05:05:35;8.23;;;4.55;;
21941;SDS011;11135;54.192;15.670;2023-07-13T05:08:40;9.57;;;4.60;;
21941;SDS011;11135;54.192;15.670;2023-07-13T05:11:46;9.57;;;4.80;;
21941;SDS011;11135;54.192;15.670;2023-07-13T05:14:54;9.60;;;4.68;;
21941;SDS011;11135;54.192;15.670;2023-07-13T05:17:59;7.78;;;4.18;;
21941;SDS011;11135;54.192;15.670;2023-07-13T05:21:05;10.07;;;4.82;;
21941;SDS011;11135;54.192;15.670;2023-07-13T05:24:14;7.35;;;3.78;;
21941;SDS011;11135;54.192;15.670;2023-07-13T05:27:26;11.45;;;5.30;;
21941;SDS011;11135;54.192;15.670;2023-07-13T05:30:35;5.78;;;3.80;;
21941;SDS011;11135;54.192;15.670;2023-07-13T05:33:41;8.35;;;3.60;;
21941;SDS011;11135;54.192;15.670;2023-07-13T05:36:47;7.18;;;3.58;;
21941;SDS011;11135;54.192;15.670;2023-07-13T05:39:52;8.35;;;3.70;;
21941;SDS011;11135;54.192;15.670;2023-07-13T05:42:59;6.35;;;3.30;;
21941;SDS011;11135;54.192;15.670;2023-07-13T05:46:06;6.70;;;3.28;;
21941;SDS011;11135;54.192;15.670;2023-07-13T05:49:14;7.32;;;3.08;;
21941;SDS011;11135;54.192;15.670;2023-07-13T05:52:19;7.35;;;3.50;;
21941;SDS011;11135;54.192;15.670;2023-07-13T05:55:25;4.47;;;2.00;;
21941;SDS011;11135;54.192;15.670;2023-07-13T05:58:32;4.45;;;1.75;;
21941;SDS011;11135;54.192;15.670;2023-07-13T06:01:48;4.95;;;1.98;;
21941;SDS011;11135;54.192;15.670;2023-07-13T06:04:54;5.35;;;2.00;;
21941;SDS011;11135;54.192;15.670;2023-07-13T06:08:02;3.05;;;1.50;;
21941;SDS011;11135;54.192;15.670;2023-07-13T06:11:07;4.65;;;1.63;;
21941;SDS011;11135;54.192;15.670;2023-07-13T06:14:14;7.13;;;1.70;;
21941;SDS011;11135;54.192;15.670;2023-07-13T06:17:22;4.85;;;1.73;;
21941;SDS011;11135;54.192;15.670;2023-07-13T06:20:28;4.00;;;1.85;;
21941;SDS011;11135;54.192;15.670;2023-07-13T06:23:34;6.70;;;1.95;;
21941;SDS011;11135;54.192;15.670;2023-07-13T06:26:39;4.82;;;1.70;;
21941;SDS011;11135;54.192;15.670;2023-07-13T06:29:48;5.40;;;1.75;;
21941;SDS011;11135;54.192;15.670;2023-07-13T06:32:57;4.68;;;2.17;;
21941;SDS011;11135;54.192;15.670;2023-07-13T06:36:04;4.15;;;1.40;;
21941;SDS011;11135;54.192;15.670;2023-07-13T06:39:11;4.40;;;1.70;;
21941;SDS011;11135;54.192;15.670;2023-07-13T06:42:19;5.95;;;1.70;;
21941;SDS011;11135;54.192;15.670;2023-07-13T06:45:24;5.10;;;1.65;;
21941;SDS011;11135;54.192;15.670;2023-07-13T06:48:35;5.75;;;1.45;;
21941;SDS011;11135;54.192;15.670;2023-07-13T06:51:41;4.85;;;1.52;;
21941;SDS011;11135;54.192;15.670;2023-07-13T06:54:46;6.05;;;1.80;;
21941;SDS011;11135;54.192;15.670;2023-07-13T06:58:00;6.72;;;1.40;;
21941;SDS011;11135;54.192;15.670;2023-07-13T07:01:05;3.33;;;1.40;;
21941;SDS011;11135;54.192;15.670;2023-07-13T07:04:20;7.18;;;1.70;;
21941;SDS011;11135;54.192;15.670;2023-07-13T07:07:28;5.07;;;1.80;;
21941;SDS011;11135;54.192;15.670;2023-07-13T07:10:34;7.40;;;1.70;;
21941;SDS011;11135;54.192;15.670;2023-07-13T07:13:40;4.80;;;1.40;;
21941;SDS011;11135;54.192;15.670;2023-07-13T07:16:49;7.15;;;1.88;;
21941;SDS011;11135;54.192;15.670;2023-07-13T07:20:02;5.53;;;1.70;;
21941;SDS011;11135;54.192;15.670;2023-07-13T07:23:08;4.30;;;1.70;;
21941;SDS011;11135;54.192;15.670;2023-07-13T07:26:14;3.65;;;1.88;;
21941;SDS011;11135;54.192;15.670;2023-07-13T07:29:20;4.10;;;1.40;;
21941;SDS011;11135;54.192;15.670;2023-07-13T07:32:48;4.22;;;1.35;;
21941;SDS011;11135;54.192;15.670;2023-07-13T07:36:01;5.25;;;2.00;;
21941;SDS011;11135;54.192;15.670;2023-07-13T07:39:11;3.42;;;1.25;;
21941;SDS011;11135;54.192;15.670;2023-07-13T07:42:16;3.78;;;1.30;;
21941;SDS011;11135;54.192;15.670;2023-07-13T07:45:22;3.95;;;1.55;;
21941;SDS011;11135;54.192;15.670;2023-07-13T07:48:32;3.30;;;1.10;;
21941;SDS011;11135;54.192;15.670;2023-07-13T07:51:40;2.75;;;1.20;;
21941;SDS011;11135;54.192;15.670;2023-07-13T07:54:46;3.13;;;1.38;;
21941;SDS011;11135;54.192;15.670;2023-07-13T07:57:54;6.72;;;1.35;;
21941;SDS011;11135;54.192;15.670;2023-07-13T08:01:04;5.15;;;1.33;;
21941;SDS011;11135;54.192;15.670;2023-07-13T08:04:14;4.85;;;1.52;;
21941;SDS011;11135;54.192;15.670;2023-07-13T08:07:28;5.53;;;1.47;;
21941;SDS011;11135;54.192;15.670;2023-07-13T08:10:40;1.70;;;1.38;;
21941;SDS011;11135;54.192;15.670;2023-07-13T08:13:45;4.35;;;1.70;;
21941;SDS011;11135;54.192;15.670;2023-07-13T08:16:54;5.40;;;1.95;;
21941;SDS011;11135;54.192;15.670;2023-07-13T08:20:02;5.93;;;1.90;;
21941;SDS011;11135;54.192;15.670;2023-07-13T08:23:12;12.73;;;3.35;;
21941;SDS011;11135;54.192;15.670;2023-07-13T08:26:20;4.88;;;2.17;;
21941;SDS011;11135;54.192;15.670;2023-07-13T08:29:25;6.07;;;2.28;;
21941;SDS011;11135;54.192;15.670;2023-07-13T08:32:38;6.35;;;2.13;;
21941;SDS011;11135;54.192;15.670;2023-07-13T08:35:48;9.13;;;2.35;;
21941;SDS011;11135;54.192;15.670;2023-07-13T08:38:59;4.10;;;2.38;;
21941;SDS011;11135;54.192;15.670;2023-07-13T08:42:11;5.47;;;2.50;;
21941;SDS011;11135;54.192;15.670;2023-07-13T08:45:19;5.15;;;2.53;;
21941;SDS011;11135;54.192;15.670;2023-07-13T08:48:25;5.28;;;2.30;;
21941;SDS011;11135;54.192;15.670;2023-07-13T08:51:33;4.13;;;2.30;;
21941;SDS011;11135;54.192;15.670;2023-07-13T08:54:45;9.57;;;2.45;;
21941;SDS011;11135;54.192;15.670;2023-07-13T08:57:56;5.50;;;2.53;;
21941;SDS011;11135;54.192;15.670;2023-07-13T09:01:05;6.45;;;2.75;;
21941;SDS011;11135;54.192;15.670;2023-07-13T09:04:16;5.55;;;2.85;;
21941;SDS011;11135;54.192;15.670;2023-07-13T09:07:28;4.88;;;2.25;;
21941;SDS011;11135;54.192;15.670;2023-07-13T09:10:43;8.35;;;2.65;;
21941;SDS011;11135;54.192;15.670;2023-07-13T09:13:52;3.45;;;2.03;;
21941;SDS011;11135;54.192;15.670;2023-07-13T09:17:03;6.03;;;2.20;;
21941;SDS011;11135;54.192;15.670;2023-07-13T09:20:10;6.85;;;2.53;;
21941;SDS011;11135;54.192;15.670;2023-07-13T09:23:20;3.75;;;1.90;;
21941;SDS011;11135;54.192;15.670;2023-07-13T09:26:32;2.85;;;1.83;;
21941;SDS011;11135;54.192;15.670;2023-07-13T09:29:41;4.10;;;2.20;;
21941;SDS011;11135;54.192;15.670;2023-07-13T09:32:47;6.45;;;2.88;;
21941;SDS011;11135;54.192;15.670;2023-07-13T09:35:56;5.15;;;2.17;;
21941;SDS011;11135;54.192;15.670;2023-07-13T09:39:03;7.00;;;2.70;;
21941;SDS011;11135;54.192;15.670;2023-07-13T09:42:15;5.72;;;2.10;;
21941;SDS011;11135;54.192;15.670;2023-07-13T09:45:26;4.15;;;1.65;;
21941;SDS011;11135;54.192;15.670;2023-07-13T09:51:37;4.35;;;2.40;;
21941;SDS011;11135;54.192;15.670;2023-07-13T09:54:44;5.03;;;2.20;;
21941;SDS011;11135;54.192;15.670;2023-07-13T09:57:53;5.15;;;1.80;;
21941;SDS011;11135;54.192;15.670;2023-07-13T10:00:59;7.45;;;1.92;;
21941;SDS011;11135;54.192;15.670;2023-07-13T10:04:11;5.60;;;2.30;;
21941;SDS011;11135;54.192;15.670;2023-07-13T10:07:18;4.95;;;1.88;;
21941;SDS011;11135;54.192;15.670;2023-07-13T10:10:31;4.47;;;1.55;;
21941;SDS011;11135;54.192;15.670;2023-07-13T10:13:44;3.28;;;1.58;;
21941;SDS011;11135;54.192;15.670;2023-07-13T10:16:52;4.60;;;1.63;;
21941;SDS011;11135;54.192;15.670;2023-07-13T10:19:59;3.95;;;1.52;;
21941;SDS011;11135;54.192;15.670;2023-07-13T10:23:09;3.65;;;1.90;;
21941;SDS011;11135;54.192;15.670;2023-07-13T10:26:21;5.07;;;1.90;;
21941;SDS011;11135;54.192;15.670;2023-07-13T10:29:32;4.80;;;1.75;;
21941;SDS011;11135;54.192;15.670;2023-07-13T10:32:44;8.63;;;2.25;;
21941;SDS011;11135;54.192;15.670;2023-07-13T10:35:51;3.22;;;1.52;;
21941;SDS011;11135;54.192;15.670;2023-07-13T10:39:00;3.67;;;1.50;;
21941;SDS011;11135;54.192;15.670;2023-07-13T10:42:08;4.18;;;1.67;;
21941;SDS011;11135;54.192;15.670;2023-07-13T10:45:20;2.25;;;1.40;;
21941;SDS011;11135;54.192;15.670;2023-07-13T10:48:26;3.30;;;1.30;;
21941;SDS011;11135;54.192;15.670;2023-07-13T10:51:34;6.13;;;1.80;;
21941;SDS011;11135;54.192;15.670;2023-07-13T10:54:42;3.33;;;1.52;;
21941;SDS011;11135;54.192;15.670;2023-07-13T10:57:52;5.78;;;1.63;;
21941;SDS011;11135;54.192;15.670;2023-07-13T11:01:06;2.25;;;1.38;;
21941;SDS011;11135;54.192;15.670;2023-07-13T11:04:13;3.58;;;1.23;;
21941;SDS011;11135;54.192;15.670;2023-07-13T11:07:19;1.75;;;1.10;;
21941;SDS011;11135;54.192;15.670;2023-07-13T11:13:58;1.67;;;1.00;;
21941;SDS011;11135;54.192;15.670;2023-07-13T11:20:35;2.42;;;1.10;;
21941;SDS011;11135;54.192;15.670;2023-07-13T11:23:53;3.60;;;1.05;;
21941;SDS011;11135;54.192;15.670;2023-07-13T11:27:01;2.65;;;0.98;;
21941;SDS011;11135;54.192;15.670;2023-07-13T11:30:25;1.88;;;1.00;;
21941;SDS011;11135;54.192;15.670;2023-07-13T11:33:49;3.45;;;1.30;;
21941;SDS011;11135;54.192;15.670;2023-07-13T11:37:00;3.45;;;1.10;;
21941;SDS011;11135;54.192;15.670;2023-07-13T11:40:12;1.88;;;0.90;;
21941;SDS011;11135;54.192;15.670;2023-07-13T11:43:17;1.50;;;0.90;;
21941;SDS011;11135;54.192;15.670;2023-07-13T11:46:27;3.72;;;0.80;;
21941;SDS011;11135;54.192;15.670;2023-07-13T11:49:38;3.53;;;1.13;;
21941;SDS011;11135;54.192;15.670;2023-07-13T11:52:46;3.28;;;1.10;;
21941;SDS011;11135;54.192;15.670;2023-07-13T11:55:54;2.15;;;0.90;;
21941;SDS011;11135;54.192;15.670;2023-07-13T11:59:04;1.98;;;1.20;;
21941;SDS011;11135;54.192;15.670;2023-07-13T12:02:13;1.48;;;1.00;;
21941;SDS011;11135;54.192;15.670;2023-07-13T12:05:22;1.77;;;0.90;;
21941;SDS011;11135;54.192;15.670;2023-07-13T12:08:30;2.58;;;1.00;;
21941;SDS011;11135;54.192;15.670;2023-07-13T12:11:35;1.15;;;0.90;;
21941;SDS011;11135;54.192;15.670;2023-07-13T12:14:46;1.88;;;1.50;;
21941;SDS011;11135;54.192;15.670;2023-07-13T12:17:52;2.55;;;1.20;;
21941;SDS011;11135;54.192;15.670;2023-07-13T12:20:58;3.28;;;1.23;;
21941;SDS011;11135;54.192;15.670;2023-07-13T12:24:11;2.58;;;0.98;;
21941;SDS011;11135;54.192;15.670;2023-07-13T12:27:19;1.75;;;1.00;;
21941;SDS011;11135;54.192;15.670;2023-07-13T12:30:27;1.73;;;1.02;;
21941;SDS011;11135;54.192;15.670;2023-07-13T12:33:39;2.22;;;1.10;;
21941;SDS011;11135;54.192;15.670;2023-07-13T12:36:48;1.63;;;0.98;;
21941;SDS011;11135;54.192;15.670;2023-07-13T12:39:57;1.85;;;1.25;;
21941;SDS011;11135;54.192;15.670;2023-07-13T12:43:04;2.42;;;1.30;;
21941;SDS011;11135;54.192;15.670;2023-07-13T12:46:15;2.80;;;1.30;;
21941;SDS011;11135;54.192;15.670;2023-07-13T12:49:26;2.15;;;1.00;;
21941;SDS011;11135;54.192;15.670;2023-07-13T12:52:33;2.53;;;1.20;;
21941;SDS011;11135;54.192;15.670;2023-07-13T12:55:45;1.95;;;1.20;;
21941;SDS011;11135;54.192;15.670;2023-07-13T12:58:56;1.15;;;0.90;;
21941;SDS011;11135;54.192;15.670;2023-07-13T13:02:13;1.52;;;1.10;;
21941;SDS011;11135;54.192;15.670;2023-07-13T13:05:27;2.67;;;1.20;;
21941;SDS011;11135;54.192;15.670;2023-07-13T13:08:34;1.45;;;0.90;;
21941;SDS011;11135;54.192;15.670;2023-07-13T13:11:46;3.05;;;1.17;;
21941;SDS011;11135;54.192;15.670;2023-07-13T13:14:57;2.58;;;1.20;;
21941;SDS011;11135;54.192;15.670;2023-07-13T13:18:04;2.08;;;1.00;;
21941;SDS011;11135;54.192;15.670;2023-07-13T13:21:10;2.80;;;1.35;;
21941;SDS011;11135;54.192;15.670;2023-07-13T13:24:17;1.70;;;1.10;;
21941;SDS011;11135;54.192;15.670;2023-07-13T13:27:26;2.42;;;1.10;;
21941;SDS011;11135;54.192;15.670;2023-07-13T13:30:32;1.75;;;1.10;;
21941;SDS011;11135;54.192;15.670;2023-07-13T13:33:39;3.35;;;1.23;;
21941;SDS011;11135;54.192;15.670;2023-07-13T13:36:49;2.10;;;1.30;;
21941;SDS011;11135;54.192;15.670;2023-07-13T13:39:59;3.20;;;1.30;;
21941;SDS011;11135;54.192;15.670;2023-07-13T13:43:23;2.60;;;1.00;;
21941;SDS011;11135;54.192;15.670;2023-07-13T13:46:30;2.20;;;1.25;;
21941;SDS011;11135;54.192;15.670;2023-07-13T13:49:38;2.95;;;1.20;;
21941;SDS011;11135;54.192;15.670;2023-07-13T13:52:44;2.15;;;1.10;;
21941;SDS011;11135;54.192;15.670;2023-07-13T13:55:50;3.63;;;1.45;;
21941;SDS011;11135;54.192;15.670;2023-07-13T13:58:57;2.20;;;1.42;;
21941;SDS011;11135;54.192;15.670;2023-07-13T14:02:07;2.53;;;1.30;;
21941;SDS011;11135;54.192;15.670;2023-07-13T14:05:19;3.08;;;1.20;;
21941;SDS011;11135;54.192;15.670;2023-07-13T14:08:26;2.78;;;1.30;;
21941;SDS011;11135;54.192;15.670;2023-07-13T14:11:34;3.08;;;1.10;;
21941;SDS011;11135;54.192;15.670;2023-07-13T14:14:43;2.90;;;1.33;;
21941;SDS011;11135;54.192;15.670;2023-07-13T14:17:52;3.25;;;1.30;;
21941;SDS011;11135;54.192;15.670;2023-07-13T14:20:59;3.22;;;1.05;;
21941;SDS011;11135;54.192;15.670;2023-07-13T14:24:05;5.70;;;2.53;;
21941;SDS011;11135;54.192;15.670;2023-07-13T14:27:11;3.67;;;1.58;;
21941;SDS011;11135;54.192;15.670;2023-07-13T14:30:20;6.57;;;1.55;;
21941;SDS011;11135;54.192;15.670;2023-07-13T14:33:27;4.63;;;1.70;;
21941;SDS011;11135;54.192;15.670;2023-07-13T14:36:33;3.78;;;1.60;;
21941;SDS011;11135;54.192;15.670;2023-07-13T14:39:39;4.22;;;1.40;;
21941;SDS011;11135;54.192;15.670;2023-07-13T14:42:45;7.45;;;1.20;;
21941;SDS011;11135;54.192;15.670;2023-07-13T14:45:54;2.22;;;1.00;;
21941;SDS011;11135;54.192;15.670;2023-07-13T14:49:01;2.15;;;1.00;;
21941;SDS011;11135;54.192;15.670;2023-07-13T14:52:11;4.45;;;0.98;;
21941;SDS011;11135;54.192;15.670;2023-07-13T14:55:18;2.72;;;1.38;;
21941;SDS011;11135;54.192;15.670;2023-07-13T14:58:24;6.22;;;1.58;;
21941;SDS011;11135;54.192;15.670;2023-07-13T15:01:35;2.33;;;1.30;;
21941;SDS011;11135;54.192;15.670;2023-07-13T15:04:42;2.58;;;1.40;;
21941;SDS011;11135;54.192;15.670;2023-07-13T15:07:50;2.90;;;1.30;;
21941;SDS011;11135;54.192;15.670;2023-07-13T15:10:56;3.83;;;1.20;;
21941;SDS011;11135;54.192;15.670;2023-07-13T15:14:02;3.22;;;1.40;;
21941;SDS011;11135;54.192;15.670;2023-07-13T15:17:17;4.15;;;0.95;;
21941;SDS011;11135;54.192;15.670;2023-07-13T15:20:25;4.10;;;1.60;;
21941;SDS011;11135;54.192;15.670;2023-07-13T15:23:36;2.55;;;1.80;;
21941;SDS011;11135;54.192;15.670;2023-07-13T15:26:41;3.95;;;2.10;;
21941;SDS011;11135;54.192;15.670;2023-07-13T15:29:53;3.88;;;2.00;;
21941;SDS011;11135;54.192;15.670;2023-07-13T15:33:05;3.67;;;1.70;;
21941;SDS011;11135;54.192;15.670;2023-07-13T15:36:16;2.78;;;1.33;;
21941;SDS011;11135;54.192;15.670;2023-07-13T15:39:21;3.75;;;1.67;;
21941;SDS011;11135;54.192;15.670;2023-07-13T15:42:32;4.05;;;1.73;;
21941;SDS011;11135;54.192;15.670;2023-07-13T15:45:38;4.18;;;1.60;;
21941;SDS011;11135;54.192;15.670;2023-07-13T15:48:49;7.97;;;4.75;;
21941;SDS011;11135;54.192;15.670;2023-07-13T15:52:03;2.53;;;1.73;;
21941;SDS011;11135;54.192;15.670;2023-07-13T15:55:11;1.92;;;1.50;;
21941;SDS011;11135;54.192;15.670;2023-07-13T15:58:16;3.88;;;1.88;;
21941;SDS011;11135;54.192;15.670;2023-07-13T16:01:34;6.15;;;2.08;;
21941;SDS011;11135;54.192;15.670;2023-07-13T21:38:55;4.93;;;2.33;;
21941;SDS011;11135;54.192;15.670;2023-07-13T21:42:03;3.58;;;2.22;;
21941;SDS011;11135;54.192;15.670;2023-07-13T21:45:13;5.18;;;2.42;;
21941;SDS011;11135;54.192;15.670;2023-07-13T21:48:25;4.93;;;2.60;;
21941;SDS011;11135;54.192;15.670;2023-07-13T21:51:32;4.40;;;2.90;;
21941;SDS011;11135;54.192;15.670;2023-07-13T21:54:48;5.38;;;2.85;;
21941;SDS011;11135;54.192;15.670;2023-07-13T21:57:53;5.05;;;2.75;;
21941;SDS011;11135;54.192;15.670;2023-07-13T22:01:00;4.93;;;2.75;;
21941;SDS011;11135;54.192;15.670;2023-07-13T22:04:09;3.95;;;2.78;;
21941;SDS011;11135;54.192;15.670;2023-07-13T22:07:17;4.68;;;2.95;;
21941;SDS011;11135;54.192;15.670;2023-07-13T22:10:27;5.10;;;2.80;;
21941;SDS011;11135;54.192;15.670;2023-07-13T22:13:38;5.55;;;3.10;;
21941;SDS011;11135;54.192;15.670;2023-07-13T22:16:43;3.85;;;2.80;;
21941;SDS011;11135;54.192;15.670;2023-07-13T22:19:53;8.23;;;3.42;;
21941;SDS011;11135;54.192;15.670;2023-07-13T22:22:58;5.28;;;4.13;;
21941;SDS011;11135;54.192;15.670;2023-07-13T22:26:24;6.35;;;3.65;;
21941;SDS011;11135;54.192;15.670;2023-07-13T22:29:31;5.47;;;3.13;;
21941;SDS011;11135;54.192;15.670;2023-07-13T22:32:38;5.47;;;3.20;;
21941;SDS011;11135;54.192;15.670;2023-07-13T22:35:48;7.60;;;3.55;;
21941;SDS011;11135;54.192;15.670;2023-07-13T22:38:59;8.98;;;2.97;;
21941;SDS011;11135;54.192;15.670;2023-07-13T22:42:10;5.90;;;3.05;;
21941;SDS011;11135;54.192;15.670;2023-07-13T22:45:16;6.00;;;3.35;;
21941;SDS011;11135;54.192;15.670;2023-07-13T22:48:24;6.22;;;3.40;;
21941;SDS011;11135;54.192;15.670;2023-07-13T22:51:34;5.68;;;3.03;;
21941;SDS011;11135;54.192;15.670;2023-07-13T22:54:41;6.03;;;3.22;;
21941;SDS011;11135;54.192;15.670;2023-07-13T22:57:51;7.68;;;3.58;;
21941;SDS011;11135;54.192;15.670;2023-07-13T23:00:57;5.03;;;3.30;;
21941;SDS011;11135;54.192;15.670;2023-07-13T23:04:05;5.65;;;3.53;;
21941;SDS011;11135;54.192;15.670;2023-07-13T23:07:19;6.75;;;3.28;;
21941;SDS011;11135;54.192;15.670;2023-07-13T23:10:27;8.45;;;3.38;;
21941;SDS011;11135;54.192;15.670;2023-07-13T23:13:37;10.93;;;3.97;;
21941;SDS011;11135;54.192;15.670;2023-07-13T23:16:43;5.72;;;3.30;;
21941;SDS011;11135;54.192;15.670;2023-07-13T23:19:50;3.97;;;3.20;;
21941;SDS011;11135;54.192;15.670;2023-07-13T23:23:01;6.78;;;3.55;;
21941;SDS011;11135;54.192;15.670;2023-07-13T23:26:09;7.15;;;3.60;;
21941;SDS011;11135;54.192;15.670;2023-07-13T23:29:20;7.70;;;3.50;;
21941;SDS011;11135;54.192;15.670;2023-07-13T23:32:25;7.93;;;3.70;;
21941;SDS011;11135;54.192;15.670;2023-07-13T23:35:46;4.95;;;3.30;;
21941;SDS011;11135;54.192;15.670;2023-07-13T23:39:02;7.10;;;2.95;;
21941;SDS011;11135;54.192;15.670;2023-07-13T23:42:12;6.93;;;3.33;;
21941;SDS011;11135;54.192;15.670;2023-07-13T23:45:26;5.28;;;3.42;;
21941;SDS011;11135;54.192;15.670;2023-07-13T23:48:35;10.30;;;3.83;;
21941;SDS011;11135;54.192;15.670;2023-07-13T23:51:41;5.68;;;3.38;;
21941;SDS011;11135;54.192;15.670;2023-07-13T23:55:04;6.53;;;3.90;;
21941;SDS011;11135;54.192;15.670;2023-07-13T23:58:14;8.80;;;3.38;;
